SEATTLE-TACOMA INTL

KSEA (SEA)
Seattle, Washington
Towered

Vatsim Metar:
KSEA 272153Z 12006KT 10SM FEW020 OVC100 10/02 A3007 RMK AO2 SLP190 T01000022

No ATC Online

Traffic

Inbound:
Ident
Type
Name
ETA
Phase
DAL1690
H/B763/L
Bryan Borst
23:33 Z
Cruse
PAY1992
A319/A
mitch clason KSEA
00:17 Z
Cruse
AAL2
B738/L
Pat Fuge KSAN
Boarding

Outbound:
Ident
Type
Name
Destination
Phase